Terminal Aerodrome Forecast
Issued by NWS

Home | Current Version | Previous Version | Text Only | Print | Product List | Glossary On
Versions: 1 2 3 4 5 6 7 8 9 10 11 12
853
FTUS46 KSTO 061124
TAFSAC
TAF
KSAC 061124Z 0612/0712 03005KT 6SM BR BKN020
      TEMPO 0614/0617 4SM BR OVC030
     FM062100 17008KT 3SM -RA OVC030
     FM070000 21006KT P6SM VCSH OVC040
     FM070600 20006KT P6SM OVC050=

USA.gov is the U.S. government's official web portal to all federal, state and local government web resources and services.